KLRO/LRO METAR and TAF weather

Enter ICAO airport designator
Station Type Date Time Source
KLRO METAR 2018/12/18 19:35 UTC NOAA

KLRO 181935Z AUTO 09007KT 10SM CLR 14/03 A3010 RMK AO2


Station Type Date Time Source
KLRO Decoded METAR 2018/12/18 19:35 UTC NOAA

Station name not available
Dec 18, 2018 - 02:35 PM EST / 2018.12.18 1935 UTC
Wind: from the E (090 degrees) at 8 MPH (7 KT):0
Visibility: 10 mile(s):0
Sky conditions: clear
Temperature: 57 F (14 C)
Dew Point: 37 F (3 C)
Relative Humidity: 47%
Pressure (altimeter): 30.1 in. Hg (1019 hPa)
ob: KLRO 181935Z AUTO 09007KT 10SM CLR 14/03 A3010 RMK AO2
cycle: 19

Station Type Date Time Source
KLRO TAF UTC NOAA

Error!


Example: see airport list